Terminal Aerodrome Forecast
Issued by NWS

Home | Current Version | Previous Version | Text Only | Print | Product List | Glossary Off
Versions: 1 2 3 4 5 6 7 8 9 10 11 12 13 14 15 16 17 18 19 20 21 22 23 24 25

000
FTUS43 KUNR 301300 AAB
TAFGCC
TAF AMD
KGCC 301359Z 3014/0112 30011KT P6SM -RA FEW007 OVC060
     FM301700 31018G28KT P6SM BKN035
     FM010000 33008KT P6SM BKN040=

USA.gov is the U.S. government's official web portal to all federal, state and local government web resources and services.